Time;durP1;ratioP1;P1;durP2;ratioP2;P2;SDS_P1;SDS_P2;PMS_P1;PMS_P2;Temp;Humidity;BMP_temperature;BMP_pressure;BME280_temperature;BME280_humidity;BME280_pressure;Samples;Min_cycle;Max_cycle;Signal;HPM_P1;HPM_P2
2024/04/04 00:01:46;;;;;;;8.90;5.60;;;;;;;10.87;100.00;99618.99;182491;1231;45497;-85
2024/04/04 00:05:51;;;;;;;14.40;8.20;;;;;;;10.84;100.00;99615.86;182388;1232;46101;-87
2024/04/04 00:09:53;;;;;;;9.60;6.00;;;;;;;10.88;100.00;99615.05;182323;1235;46180;-88
2024/04/04 00:13:55;;;;;;;7.30;4.20;;;;;;;10.86;100.00;99610.39;182270;1237;46049;-87
2024/04/04 00:17:57;;;;;;;12.10;4.00;;;;;;;10.82;100.00;99609.87;182448;1233;59973;-87
2024/04/04 00:21:59;;;;;;;3.80;3.00;;;;;;;10.74;100.00;99606.36;182285;1231;46114;-87
2024/04/04 00:26:01;;;;;;;4.20;3.60;;;;;;;10.70;100.00;99602.98;182413;1231;46001;-88
2024/04/04 00:30:04;;;;;;;3.60;3.20;;;;;;;10.65;100.00;99606.67;182346;1232;46136;-89
2024/04/04 00:34:06;;;;;;;2.40;2.00;;;;;;;10.63;100.00;99606.30;184025;1231;45890;-89
2024/04/04 00:38:08;;;;;;;3.20;2.60;;;;;;;10.61;100.00;99604.97;183541;1235;58165;-88
2024/04/04 00:42:10;;;;;;;6.00;2.70;;;;;;;10.60;100.00;99605.73;182837;1231;46084;-88
2024/04/04 00:46:12;;;;;;;2.40;1.80;;;;;;;10.57;100.00;99612.16;182686;1231;46101;-87
2024/04/04 00:50:16;;;;;;;7.40;2.60;;;;;;;10.59;100.00;99614.08;182386;1231;45986;-87
2024/04/04 00:54:19;;;;;;;5.60;3.30;;;;;;;10.63;100.00;99614.86;182232;1231;46064;-86
2024/04/04 00:58:21;;;;;;;3.90;2.20;;;;;;;10.69;100.00;99616.20;182928;1231;57182;-88
2024/04/04 01:02:24;;;;;;;3.30;2.20;;;;;;;10.75;100.00;99612.83;182218;1231;46542;-88
2024/04/04 01:06:31;;;;;;;2.50;1.90;;;;;;;10.72;100.00;99612.79;182745;1231;46471;-87
2024/04/04 01:10:33;;;;;;;5.70;2.50;;;;;;;10.69;100.00;99613.73;182277;1232;46017;-88
2024/04/04 01:14:35;;;;;;;3.70;3.10;;;;;;;10.66;100.00;99614.73;182170;1232;46146;-87
2024/04/04 01:18:37;;;;;;;5.50;3.30;;;;;;;10.64;100.00;99615.64;182252;1235;58120;-88
2024/04/04 01:22:39;;;;;;;8.20;3.50;;;;;;;10.64;100.00;99613.64;182389;1235;44092;-88
2024/04/04 01:26:41;;;;;;;7.10;3.90;;;;;;;10.66;100.00;99615.26;182295;1232;45910;-86
2024/04/04 01:30:43;;;;;;;4.40;4.00;;;;;;;10.65;100.00;99616.61;182267;1231;46539;-88
2024/04/04 01:34:45;;;;;;;9.90;3.70;;;;;;;10.66;100.00;99615.25;182297;1231;45912;-87
2024/04/04 01:38:47;;;;;;;6.20;3.20;;;;;;;10.69;100.00;99618.35;183143;1231;59941;-87
2024/04/04 01:42:49;;;;;;;2.90;2.70;;;;;;;10.69;100.00;99620.30;182680;1232;46123;-88
2024/04/04 01:46:51;;;;;;;3.90;2.90;;;;;;;10.67;100.00;99619.06;182632;1231;46159;-89
2024/04/04 01:50:52;;;;;;;5.40;2.90;;;;;;;10.68;100.00;99615.25;182589;1232;46210;-88
2024/04/04 01:54:54;;;;;;;3.40;2.00;;;;;;;10.69;100.00;99618.02;182460;1231;46139;-87
2024/04/04 01:58:57;;;;;;;4.80;3.00;;;;;;;10.67;100.00;99611.77;182771;1234;58034;-89
2024/04/04 02:02:58;;;;;;;7.30;3.40;;;;;;;10.69;100.00;99611.64;182424;1232;46199;-88
2024/04/04 02:07:00;;;;;;;8.60;4.70;;;;;;;10.69;100.00;99608.55;182465;1235;46171;-88
2024/04/04 02:11:03;;;;;;;17.10;5.10;;;;;;;10.68;100.00;99606.91;182212;1231;46325;-88
2024/04/04 02:15:05;;;;;;;8.70;4.60;;;;;;;10.71;100.00;99606.45;182452;1231;46133;-89
2024/04/04 02:19:08;;;;;;;4.10;2.40;;;;;;;10.72;100.00;99604.61;182224;1231;57838;-86
2024/04/04 02:23:10;;;;;;;8.40;4.00;;;;;;;10.65;100.00;99607.23;182212;1237;46143;-88
2024/04/04 02:27:12;;;;;;;8.80;5.30;;;;;;;10.64;100.00;99603.56;182698;1235;46117;-88
2024/04/04 02:31:14;;;;;;;5.00;3.70;;;;;;;10.63;100.00;99599.79;182600;1232;45859;-84
2024/04/04 02:35:16;;;;;;;11.20;4.20;;;;;;;10.63;100.00;99596.20;182753;1235;46046;-87
2024/04/04 02:39:18;;;;;;;6.30;4.10;;;;;;;10.67;100.00;99594.63;182148;1235;59345;-87
2024/04/04 02:43:20;;;;;;;6.00;3.70;;;;;;;10.70;100.00;99604.54;183065;1231;46005;-86
2024/04/04 02:47:22;;;;;;;3.50;2.70;;;;;;;10.74;100.00;99604.60;183622;1231;45983;-88
2024/04/04 02:51:24;;;;;;;4.90;3.30;;;;;;;10.77;100.00;99605.79;182362;1231;46009;-87
2024/04/04 02:55:26;;;;;;;8.40;4.30;;;;;;;10.76;100.00;99609.75;182438;1236;46105;-86
2024/04/04 02:59:28;;;;;;;5.50;3.90;;;;;;;10.76;100.00;99610.95;182642;1232;59174;-87
2024/04/04 03:03:30;;;;;;;5.50;3.00;;;;;;;10.76;100.00;99618.09;182339;1232;46111;-86
2024/04/04 03:07:32;;;;;;;4.50;3.50;;;;;;;10.76;100.00;99620.59;182416;1235;45976;-87
2024/04/04 03:11:36;;;;;;;3.70;3.40;;;;;;;10.74;100.00;99622.92;182667;1235;46175;-86
2024/04/04 03:15:38;;;;;;;3.90;3.30;;;;;;;10.72;100.00;99620.60;182795;1231;46088;-85
2024/04/04 03:19:40;;;;;;;6.80;4.30;;;;;;;10.69;100.00;99618.04;182836;1231;59442;-85
2024/04/04 03:23:42;;;;;;;5.10;4.10;;;;;;;10.68;100.00;99614.69;182606;1231;46175;-86
2024/04/04 03:27:44;;;;;;;5.50;3.80;;;;;;;10.67;100.00;99613.95;182391;1231;46104;-84
2024/04/04 03:31:46;;;;;;;5.70;5.20;;;;;;;10.66;100.00;99614.20;182600;1235;46067;-82
2024/04/04 03:35:47;;;;;;;7.70;4.60;;;;;;;10.67;100.00;99618.36;182877;1231;46148;-82
2024/04/04 03:39:49;;;;;;;5.10;4.60;;;;;;;10.68;100.00;99613.63;182862;1231;59621;-85
2024/04/04 03:43:52;;;;;;;11.00;6.00;;;;;;;10.67;100.00;99616.02;183560;1232;46024;-85
2024/04/04 03:47:53;;;;;;;6.00;5.40;;;;;;;10.69;100.00;99620.13;182694;1231;45993;-85
2024/04/04 03:51:55;;;;;;;10.70;6.30;;;;;;;10.67;100.00;99622.98;182778;1232;46158;-85
2024/04/04 03:55:57;;;;;;;6.40;5.10;;;;;;;10.69;100.00;99624.58;182470;1231;46092;-86
2024/04/04 04:00:00;;;;;;;10.50;7.10;;;;;;;10.69;100.00;99624.91;182411;1232;59426;-85
2024/04/04 04:04:02;;;;;;;8.60;6.40;;;;;;;10.69;100.00;99625.80;182600;1232;46006;-85
2024/04/04 04:08:04;;;;;;;8.80;6.80;;;;;;;10.71;100.00;99624.02;182604;1235;46068;-83
2024/04/04 04:12:06;;;;;;;7.60;6.80;;;;;;;10.74;100.00;99625.89;182593;1232;46088;-83
2024/04/04 04:16:08;;;;;;;9.90;8.00;;;;;;;10.75;100.00;99621.20;182519;1231;44222;-84
2024/04/04 04:24:30;;;;;;;10.20;8.70;;;;;;;10.73;100.00;99607.91;182611;1231;46197;-85
2024/04/04 04:28:32;;;;;;;10.90;8.80;;;;;;;10.76;100.00;99607.45;182293;1231;44779;-85
2024/04/04 04:32:34;;;;;;;9.10;7.20;;;;;;;10.78;100.00;99610.95;182644;1231;45889;-85
2024/04/04 04:36:44;;;;;;;10.70;7.30;;;;;;;10.83;100.00;99612.52;182680;1231;46113;-84
2024/04/04 04:40:51;;;;;;;8.90;7.80;;;;;;;10.87;100.00;99620.29;182375;1231;59938;-85
2024/04/04 04:44:53;;;;;;;13.70;8.20;;;;;;;10.88;100.00;99625.42;182119;1231;46118;-86
2024/04/04 04:48:55;;;;;;;11.40;8.80;;;;;;;10.92;100.00;99622.09;182904;1231;44566;-85
2024/04/04 04:52:57;;;;;;;8.40;7.60;;;;;;;10.97;100.00;99632.77;182542;1235;46555;-86
2024/04/04 04:56:59;;;;;;;8.60;6.90;;;;;;;11.01;100.00;99633.16;183016;1231;46195;-85
2024/04/04 05:01:03;;;;;;;8.40;7.40;;;;;;;11.03;100.00;99631.92;184424;1231;59407;-85
2024/04/04 05:05:15;;;;;;;9.90;6.70;;;;;;;11.06;100.00;99639.61;182643;1231;46022;-86
2024/04/04 05:09:17;;;;;;;14.60;7.90;;;;;;;11.11;100.00;99643.56;182444;1235;46120;-84
2024/04/04 05:13:19;;;;;;;7.80;7.00;;;;;;;11.17;100.00;99639.05;182255;1235;46011;-86
2024/04/04 05:17:21;;;;;;;10.30;7.70;;;;;;;11.25;100.00;99638.67;182370;1235;46120;-83
2024/04/04 05:21:23;;;;;;;9.90;7.50;;;;;;;11.35;100.00;99640.92;182515;1231;58157;-86
2024/04/04 05:25:24;;;;;;;9.80;8.80;;;;;;;11.46;100.00;99647.52;182310;1236;46074;-84
2024/04/04 05:29:26;;;;;;;7.80;7.00;;;;;;;11.55;100.00;99653.59;182390;1232;46280;-85
2024/04/04 05:33:28;;;;;;;11.50;8.40;;;;;;;11.60;100.00;99654.23;182114;1231;46101;-86
2024/04/04 05:37:30;;;;;;;7.50;6.80;;;;;;;11.64;100.00;99653.97;182420;1231;46100;-85
2024/04/04 05:41:32;;;;;;;8.20;6.30;;;;;;;11.66;100.00;99653.85;182377;1230;59252;-85
2024/04/04 05:45:34;;;;;;;9.70;7.90;;;;;;;11.66;100.00;99651.92;182305;1231;46063;-85
2024/04/04 05:49:36;;;;;;;7.70;6.80;;;;;;;11.68;100.00;99657.51;182429;1231;46085;-84
2024/04/04 05:53:37;;;;;;;6.70;6.10;;;;;;;11.76;100.00;99656.60;182226;1231;46132;-85
2024/04/04 05:57:39;;;;;;;7.10;5.90;;;;;;;11.88;100.00;99656.86;182608;1231;46072;-86
2024/04/04 06:01:41;;;;;;;9.20;6.90;;;;;;;12.02;100.00;99657.33;182281;1231;58110;-86
2024/04/04 06:05:43;;;;;;;9.20;6.00;;;;;;;12.14;100.00;99661.86;182473;1231;46143;-85
2024/04/04 06:09:45;;;;;;;10.70;6.20;;;;;;;12.23;100.00;99669.98;182382;1234;46155;-85
2024/04/04 06:13:46;;;;;;;8.20;6.00;;;;;;;12.34;100.00;99672.52;181946;1231;283573;-85
2024/04/04 06:17:48;;;;;;;9.50;6.60;;;;;;;12.45;100.00;99677.83;183187;1231;46063;-85
2024/04/04 06:21:50;;;;;;;5.20;4.70;;;;;;;12.59;100.00;99683.19;182867;1235;59251;-85
2024/04/04 06:25:52;;;;;;;7.40;6.70;;;;;;;12.69;100.00;99682.92;182364;1231;46120;-84
2024/04/04 06:29:54;;;;;;;6.50;5.80;;;;;;;12.70;100.00;99686.22;182153;1231;46491;-83
2024/04/04 06:33:56;;;;;;;5.30;4.60;;;;;;;12.68;100.00;99691.52;182253;1231;46151;-85
2024/04/04 06:37:58;;;;;;;5.00;4.50;;;;;;;12.65;100.00;99696.47;182417;1234;46014;-85
2024/04/04 06:42:00;;;;;;;6.40;4.90;;;;;;;12.60;100.00;99702.66;182533;1231;59383;-84
2024/04/04 06:46:02;;;;;;;5.90;5.30;;;;;;;12.53;100.00;99704.55;182518;1231;46098;-85
2024/04/04 06:50:06;;;;;;;5.80;5.10;;;;;;;12.51;100.00;99708.39;182685;1231;46024;-85
2024/04/04 06:54:18;;;;;;;6.40;5.00;;;;;;;12.56;100.00;99712.07;182430;1231;46003;-85
2024/04/04 06:58:20;;;;;;;10.70;4.50;;;;;;;12.64;100.00;99720.27;182734;1235;46082;-85
2024/04/04 07:02:21;;;;;;;4.70;4.10;;;;;;;12.60;100.00;99727.20;182571;1235;59355;-85
2024/04/04 07:06:24;;;;;;;5.90;4.40;;;;;;;12.53;100.00;99729.30;182681;1231;45982;-87
2024/04/04 07:10:26;;;;;;;4.60;3.70;;;;;;;12.39;100.00;99729.92;183410;1231;45271;-85
2024/04/04 07:14:28;;;;;;;5.40;4.80;;;;;;;12.27;100.00;99730.42;183467;1231;46194;-85
2024/04/04 07:18:31;;;;;;;7.00;5.90;;;;;;;12.13;100.00;99731.09;182488;1235;46098;-85
2024/04/04 07:22:33;;;;;;;6.20;5.40;;;;;;;12.02;100.00;99734.45;182829;1231;57922;-85
2024/04/04 07:26:35;;;;;;;8.50;6.10;;;;;;;11.98;100.00;99738.52;182459;1231;46081;-85
2024/04/04 07:30:37;;;;;;;7.90;6.20;;;;;;;11.93;100.00;99740.73;182540;1235;46596;-85
2024/04/04 07:34:39;;;;;;;9.90;5.70;;;;;;;11.92;100.00;99744.93;182712;1231;46043;-86
2024/04/04 07:38:41;;;;;;;7.30;6.30;;;;;;;11.97;100.00;99743.08;182529;1235;46244;-86
2024/04/04 07:42:45;;;;;;;6.30;5.10;;;;;;;12.03;100.00;99739.31;182307;1231;60493;-85
2024/04/04 07:46:51;;;;;;;4.70;3.90;;;;;;;12.18;100.00;99739.80;182892;1235;45983;-83
2024/04/04 07:50:52;;;;;;;5.90;4.00;;;;;;;12.36;100.00;99748.05;182366;1235;46011;-86
2024/04/04 07:54:54;;;;;;;5.80;5.30;;;;;;;12.51;100.00;99748.40;182383;1231;46476;-85
2024/04/04 07:58:56;;;;;;;6.60;5.90;;;;;;;12.66;100.00;99748.88;182253;1231;46092;-86
2024/04/04 08:03:01;;;;;;;7.70;6.90;;;;;;;12.84;100.00;99751.35;182256;1233;59243;-85
2024/04/04 08:07:03;;;;;;;8.20;6.20;;;;;;;13.01;100.00;99761.05;182470;1231;46520;-86
2024/04/04 08:11:07;;;;;;;7.30;6.30;;;;;;;13.13;100.00;99761.08;182523;1231;45970;-83
2024/04/04 08:15:12;;;;;;;5.40;4.80;;;;;;;13.31;100.00;99757.64;182489;1231;46153;-85
2024/04/04 08:19:14;;;;;;;4.30;3.60;;;;;;;13.54;100.00;99759.11;182271;1231;45979;-83
2024/04/04 08:23:16;;;;;;;3.20;2.80;;;;;;;13.69;100.00;99752.23;182525;1231;58175;-84
2024/04/04 08:27:21;;;;;;;3.30;3.00;;;;;;;13.86;100.00;99757.27;182322;1231;45984;-84
2024/04/04 08:31:23;;;;;;;3.10;1.50;;;;;;;14.05;100.00;99754.96;182612;1231;46120;-85
2024/04/04 08:35:25;;;;;;;1.90;1.40;;;;;;;14.23;100.00;99753.46;182437;1231;45815;-85
2024/04/04 08:39:27;;;;;;;1.20;1.10;;;;;;;14.42;100.00;99748.76;182338;1236;46196;-84
2024/04/04 08:43:30;;;;;;;2.60;1.40;;;;;;;14.84;100.00;99747.95;182115;1231;58139;-85
2024/04/04 08:47:32;;;;;;;3.30;1.40;;;;;;;15.42;100.00;99741.04;182157;1231;46434;-84
2024/04/04 08:51:34;;;;;;;0.90;0.90;;;;;;;15.66;100.00;99744.33;182309;1231;46194;-85
2024/04/04 08:55:36;;;;;;;1.80;1.70;;;;;;;15.80;100.00;99747.77;182446;1232;45970;-84
2024/04/04 08:59:38;;;;;;;1.80;1.40;;;;;;;16.29;100.00;99743.18;182507;1231;45989;-85
2024/04/04 09:03:44;;;;;;;2.20;1.30;;;;;;;16.41;100.00;99741.05;182184;1231;58132;-85
2024/04/04 09:07:45;;;;;;;2.00;1.70;;;;;;;16.44;99.83;99736.98;182365;1231;46126;-83
2024/04/04 09:11:47;;;;;;;1.60;1.50;;;;;;;16.47;99.74;99738.56;182504;1231;45960;-84
2024/04/04 09:15:49;;;;;;;2.60;1.80;;;;;;;16.51;98.94;99729.63;182546;1231;45986;-85
2024/04/04 09:19:53;;;;;;;1.90;1.40;;;;;;;16.66;98.67;99727.47;183048;1231;46009;-84
2024/04/04 09:23:55;;;;;;;3.30;2.20;;;;;;;16.77;97.52;99722.66;182551;1231;58534;-84
2024/04/04 09:27:59;;;;;;;3.50;1.90;;;;;;;16.77;93.64;99729.23;182258;1231;46054;-83
2024/04/04 09:32:03;;;;;;;8.50;2.20;;;;;;;16.69;95.28;99729.88;183839;1231;45996;-85
2024/04/04 09:36:05;;;;;;;4.60;2.30;;;;;;;16.73;93.74;99729.52;183603;1231;45990;-85
2024/04/04 09:40:08;;;;;;;2.30;1.60;;;;;;;16.65;92.58;99731.34;182261;1232;46771;-84
2024/04/04 09:44:11;;;;;;;2.90;1.90;;;;;;;16.73;94.81;99734.60;182385;1231;58115;-85
2024/04/04 09:48:13;;;;;;;2.90;1.50;;;;;;;16.94;92.88;99726.93;182407;1234;45999;-85
2024/04/04 09:52:22;;;;;;;3.20;1.70;;;;;;;17.18;87.62;99725.55;182368;1235;46149;-85
2024/04/04 09:56:25;;;;;;;2.40;1.40;;;;;;;17.54;86.77;99722.68;182343;1231;45759;-84
2024/04/04 10:00:28;;;;;;;1.80;1.40;;;;;;;17.78;84.91;99723.04;182492;1231;46044;-85
2024/04/04 10:04:37;;;;;;;1.00;0.80;;;;;;;18.05;84.68;99723.14;182072;1236;58950;-84
2024/04/04 10:08:39;;;;;;;1.90;1.30;;;;;;;18.07;83.07;99721.41;182313;1231;46057;-85
2024/04/04 10:12:49;;;;;;;1.90;1.20;;;;;;;17.79;87.44;99717.27;182445;1231;46075;-85
2024/04/04 10:16:55;;;;;;;5.20;2.10;;;;;;;17.34;83.97;99715.90;181967;1232;46093;-85
2024/04/04 10:21:00;;;;;;;3.50;1.60;;;;;;;17.40;86.45;99710.24;182356;1231;45965;-85
2024/04/04 10:25:05;;;;;;;1.80;1.10;;;;;;;17.55;83.17;99705.94;182290;1231;59436;-84
2024/04/04 10:29:12;;;;;;;1.60;1.40;;;;;;;17.46;79.48;99693.43;182583;1236;46188;-85
2024/04/04 10:33:32;;;;;;;0.60;0.40;;;;;;;17.51;82.22;99698.89;182377;1231;46135;-85
2024/04/04 10:37:34;;;;;;;0.60;0.40;;;;;;;17.67;81.02;99699.52;182743;1231;46123;-83
2024/04/04 10:41:37;;;;;;;1.30;0.60;;;;;;;17.86;74.31;99699.67;183361;1236;45949;-85
2024/04/04 10:45:39;;;;;;;0.80;0.50;;;;;;;18.15;75.46;99696.18;182710;1235;58135;-85
2024/04/04 10:49:41;;;;;;;0.30;0.20;;;;;;;18.38;71.28;99694.52;182251;1231;45998;-85
2024/04/04 10:53:43;;;;;;;0.50;0.40;;;;;;;18.55;65.70;99691.54;182285;1231;46052;-83
2024/04/04 10:57:48;;;;;;;0.70;0.20;;;;;;;18.63;64.77;99691.94;182419;1231;45986;-83
2024/04/04 11:01:52;;;;;;;0.60;0.50;;;;;;;18.63;63.02;99697.12;182374;1236;46089;-85
2024/04/04 11:05:54;;;;;;;1.90;0.80;;;;;;;18.68;63.98;99697.50;182654;1235;57947;-85
2024/04/04 11:09:56;;;;;;;2.00;0.40;;;;;;;18.86;62.98;99691.56;182792;1231;46241;-84
2024/04/04 11:13:58;;;;;;;0.70;0.30;;;;;;;18.82;55.95;99689.33;182739;1235;46089;-84
2024/04/04 11:18:00;;;;;;;0.70;0.40;;;;;;;18.61;55.97;99674.48;182352;1231;46069;-84
2024/04/04 11:22:02;;;;;;;0.30;0.30;;;;;;;18.35;54.86;99682.95;182218;1231;46092;-84
2024/04/04 11:26:04;;;;;;;0.80;0.60;;;;;;;18.20;57.84;99694.75;182388;1232;59274;-84
2024/04/04 11:30:08;;;;;;;0.70;0.50;;;;;;;18.21;60.17;99692.81;182338;1237;46075;-84
2024/04/04 11:34:10;;;;;;;0.80;0.50;;;;;;;18.51;55.78;99691.48;182290;1231;46082;-84
2024/04/04 11:38:12;;;;;;;9.20;1.10;;;;;;;18.79;56.91;99689.92;182448;1236;46190;-84
2024/04/04 11:42:14;;;;;;;1.00;0.50;;;;;;;19.13;55.97;99676.65;182297;1231;46091;-81
2024/04/04 11:46:17;;;;;;;0.70;0.30;;;;;;;19.36;55.30;99670.73;182537;1235;58615;-84
2024/04/04 11:50:20;;;;;;;2.70;0.60;;;;;;;19.33;53.48;99667.10;183361;1231;45911;-85
2024/04/04 11:54:22;;;;;;;2.40;0.30;;;;;;;19.12;55.64;99664.79;182540;1231;46191;-84
2024/04/04 11:58:27;;;;;;;1.80;0.70;;;;;;;19.04;56.02;99657.92;183069;1236;46075;-85
2024/04/04 12:02:29;;;;;;;0.30;0.30;;;;;;;18.93;56.40;99660.35;183823;1231;46166;-85
2024/04/04 12:06:31;;;;;;;0.70;0.40;;;;;;;19.13;55.84;99655.46;183254;1231;58054;-85
2024/04/04 12:10:33;;;;;;;0.90;0.40;;;;;;;19.54;57.56;99650.12;182860;1231;46545;-84
2024/04/04 12:14:35;;;;;;;0.30;0.30;;;;;;;19.74;55.56;99647.50;182604;1231;45961;-85
2024/04/04 12:19:38;;;;;;;0.60;0.50;;;;;;;19.60;56.76;99646.71;182817;1235;46066;-84
2024/04/04 12:23:08;;;;;;;2.10;1.00;;;;;;;19.44;54.44;99643.77;182419;1231;45993;-84
2024/04/04 12:27:10;;;;;;;0.60;0.40;;;;;;;19.40;55.76;99639.27;182522;1231;58645;-84
2024/04/04 12:31:13;;;;;;;2.50;0.60;;;;;;;19.50;58.01;99634.17;182242;1232;45983;-84
2024/04/04 12:35:15;;;;;;;1.10;0.90;;;;;;;19.49;55.98;99624.75;182498;1231;46117;-83
2024/04/04 12:39:17;;;;;;;1.00;0.60;;;;;;;19.27;56.45;99623.56;182444;1231;46251;-84
2024/04/04 12:43:19;;;;;;;3.00;0.80;;;;;;;19.06;59.47;99626.77;182528;1231;45960;-84
2024/04/04 12:47:21;;;;;;;0.80;0.40;;;;;;;18.96;59.99;99624.80;182667;1236;57092;-84
2024/04/04 12:51:22;;;;;;;3.10;0.50;;;;;;;19.01;61.55;99622.54;182877;1236;46011;-83
2024/04/04 12:55:24;;;;;;;1.50;0.30;;;;;;;19.03;61.49;99619.27;183258;1231;46076;-85
2024/04/04 12:59:26;;;;;;;1.50;0.40;;;;;;;19.09;61.66;99618.61;182716;1237;46038;-86
2024/04/04 13:03:28;;;;;;;1.20;0.60;;;;;;;19.20;60.17;99617.52;182955;1231;45908;-84
2024/04/04 13:07:30;;;;;;;1.80;0.50;;;;;;;19.34;65.22;99613.84;183454;1232;57659;-86
2024/04/04 13:11:32;;;;;;;2.00;1.10;;;;;;;19.40;67.88;99609.94;183165;1236;46053;-86
2024/04/04 13:15:34;;;;;;;0.40;0.30;;;;;;;19.41;69.27;99605.38;183266;1231;46110;-86
2024/04/04 13:19:36;;;;;;;1.50;0.90;;;;;;;19.42;67.31;99603.63;182836;1231;46155;-86
2024/04/04 13:23:38;;;;;;;1.00;0.50;;;;;;;19.42;71.31;99607.41;183181;1231;46015;-84
2024/04/04 13:27:41;;;;;;;1.40;0.60;;;;;;;19.47;70.07;99605.86;182870;1231;59859;-84
2024/04/04 13:31:43;;;;;;;0.90;0.50;;;;;;;19.42;67.42;99600.19;183323;1235;46044;-85
2024/04/04 13:35:44;;;;;;;0.40;0.40;;;;;;;19.19;66.32;99599.34;182649;1237;44654;-85
2024/04/04 13:39:49;;;;;;;4.10;0.70;;;;;;;18.99;67.76;99599.38;182398;1235;46111;-85
2024/04/04 13:43:51;;;;;;;0.70;0.60;;;;;;;18.79;73.07;99600.64;183269;1231;45987;-84
2024/04/04 13:47:53;;;;;;;1.60;0.90;;;;;;;18.49;71.07;99600.30;183012;1231;58012;-85
2024/04/04 13:51:59;;;;;;;2.90;1.00;;;;;;;18.35;73.20;99597.79;182754;1231;45988;-84
2024/04/04 13:56:01;;;;;;;;;;;;;;;18.23;71.29;99592.61;182682;1231;46148;-84
2024/04/04 14:00:07;;;;;;;1.10;0.60;;;;;;;18.18;72.62;99587.36;182513;1237;45757;-84
2024/04/04 14:04:08;;;;;;;1.60;0.80;;;;;;;18.26;74.75;99589.20;182751;1236;46008;-85
2024/04/04 14:08:11;;;;;;;0.70;0.40;;;;;;;18.44;74.59;99584.63;182632;1231;57894;-85
2024/04/04 14:12:13;;;;;;;1.20;0.70;;;;;;;18.48;74.45;99571.67;182289;1231;46047;-85
2024/04/04 14:16:15;;;;;;;2.90;0.50;;;;;;;18.38;73.45;99569.18;182835;1236;46138;-85
2024/04/04 14:20:17;;;;;;;2.60;0.70;;;;;;;18.22;71.01;99565.78;182779;1231;46114;-85
2024/04/04 14:24:19;;;;;;;0.90;0.50;;;;;;;18.15;73.92;99554.48;182555;1232;46744;-85
2024/04/04 14:28:21;;;;;;;1.80;0.40;;;;;;;18.03;74.63;99554.91;182351;1232;60374;-85
2024/04/04 14:32:23;;;;;;;4.40;0.70;;;;;;;17.81;75.21;99548.27;182950;1231;45979;-84
2024/04/04 14:36:25;;;;;;;0.60;0.40;;;;;;;17.62;75.91;99549.08;183372;1236;45945;-84
2024/04/04 14:40:28;;;;;;;2.60;0.60;;;;;;;17.42;75.75;99543.96;182734;1231;46081;-84
2024/04/04 14:44:30;;;;;;;1.30;0.90;;;;;;;17.35;78.21;99546.48;182462;1232;45960;-85
2024/04/04 14:48:32;;;;;;;2.20;0.60;;;;;;;17.35;78.41;99542.27;182079;1237;59440;-85
2024/04/04 14:52:34;;;;;;;1.70;0.30;;;;;;;17.39;79.48;99540.31;182330;1232;46113;-85
2024/04/04 14:56:36;;;;;;;0.80;0.30;;;;;;;17.42;79.44;99537.02;182512;1232;45992;-85
2024/04/04 15:00:37;;;;;;;2.50;0.60;;;;;;;17.44;80.39;99531.08;182864;1237;46043;-85
2024/04/04 15:04:39;;;;;;;2.90;0.60;;;;;;;17.43;80.07;99527.26;183079;1232;46605;-85
2024/04/04 15:08:44;;;;;;;1.50;0.90;;;;;;;17.43;80.45;99522.83;182335;1232;59298;-85
2024/04/04 15:12:46;;;;;;;3.60;2.90;;;;;;;17.41;80.22;99519.96;182181;1232;46408;-85
2024/04/04 15:16:47;;;;;;;6.80;4.70;;;;;;;17.46;80.36;99512.69;182306;1232;46209;-82
2024/04/04 15:20:49;;;;;;;5.20;3.60;;;;;;;17.47;80.44;99512.05;182291;1231;46037;-85
2024/04/04 15:24:51;;;;;;;4.00;2.00;;;;;;;17.47;80.01;99510.48;182155;1238;46072;-85
2024/04/04 15:28:55;;;;;;;5.00;1.90;;;;;;;17.47;80.39;99512.99;181893;1237;58123;-84
2024/04/04 15:32:58;;;;;;;11.20;1.40;;;;;;;17.44;82.10;99515.45;181947;1236;46121;-85
2024/04/04 15:37:00;;;;;;;2.50;0.80;;;;;;;17.33;84.77;99516.61;182192;1237;46583;-85
2024/04/04 15:41:02;;;;;;;2.10;0.90;;;;;;;17.16;86.98;99512.86;182368;1232;46183;-85
2024/04/04 15:45:05;;;;;;;2.00;1.30;;;;;;;16.96;87.99;99505.11;182420;1232;46209;-85
2024/04/04 15:49:06;;;;;;;5.20;2.90;;;;;;;16.78;86.79;99505.97;182483;1232;60472;-85
2024/04/04 15:53:08;;;;;;;6.50;2.20;;;;;;;16.68;87.71;99503.60;182957;1232;45972;-85
2024/04/04 15:57:10;;;;;;;2.90;1.40;;;;;;;16.58;87.24;99496.73;182661;1231;45985;-85
2024/04/04 16:01:12;;;;;;;1.70;1.10;;;;;;;16.50;87.98;99490.63;182093;1232;46149;-85
2024/04/04 16:05:14;;;;;;;5.20;1.80;;;;;;;16.47;88.79;99488.64;182118;1236;46091;-85
2024/04/04 16:09:19;;;;;;;4.70;2.10;;;;;;;16.45;89.27;99487.86;183131;1236;59955;-85
2024/04/04 16:13:21;;;;;;;3.00;1.80;;;;;;;16.41;90.14;99489.38;182490;1232;46095;-85
2024/04/04 16:17:23;;;;;;;2.90;1.60;;;;;;;16.36;90.15;99480.96;182631;1237;46002;-85
2024/04/04 16:21:24;;;;;;;2.00;1.00;;;;;;;16.37;90.07;99485.27;182313;1231;46092;-85
2024/04/04 16:25:26;;;;;;;1.90;1.20;;;;;;;16.36;91.21;99490.67;182182;1231;46222;-85
2024/04/04 16:29:28;;;;;;;2.50;1.90;;;;;;;16.32;91.66;99490.45;182117;1237;58223;-85
2024/04/04 16:33:30;;;;;;;2.90;1.30;;;;;;;16.28;92.13;99489.79;182309;1232;46490;-85
2024/04/04 16:37:33;;;;;;;4.40;1.00;;;;;;;16.27;93.21;99492.96;182276;1232;45972;-85
2024/04/04 16:41:35;;;;;;;1.50;1.20;;;;;;;16.25;93.92;99493.85;182133;1232;46049;-82
2024/04/04 16:45:38;;;;;;;5.90;1.50;;;;;;;16.21;94.86;99497.21;182233;1235;46117;-85
2024/04/04 16:49:39;;;;;;;2.20;0.80;;;;;;;16.13;96.34;99501.17;182165;1233;57687;-85
2024/04/04 16:53:42;;;;;;;1.10;0.90;;;;;;;16.02;96.59;99503.42;182303;1232;45967;-85
2024/04/04 16:57:44;;;;;;;0.90;0.50;;;;;;;15.95;97.18;99501.53;182223;1235;45987;-84
2024/04/04 17:01:46;;;;;;;1.60;1.50;;;;;;;15.87;98.04;99500.29;182644;1232;45813;-84
2024/04/04 17:05:48;;;;;;;2.30;0.60;;;;;;;15.80;97.40;99504.41;184236;1232;46203;-83
2024/04/04 17:09:50;;;;;;;1.80;1.00;;;;;;;15.77;96.22;99503.39;182559;1232;59417;-84
2024/04/04 17:13:53;;;;;;;2.00;1.10;;;;;;;15.76;96.40;99506.54;182246;1232;45982;-84
2024/04/04 17:17:55;;;;;;;0.70;0.50;;;;;;;15.74;96.73;99506.05;181937;1232;46339;-84
2024/04/04 17:21:58;;;;;;;4.10;1.10;;;;;;;15.71;95.83;99508.52;182113;1235;46027;-85
2024/04/04 17:26:02;;;;;;;4.00;1.00;;;;;;;15.69;94.69;99509.29;182265;1232;45976;-84
2024/04/04 17:30:05;;;;;;;3.10;1.00;;;;;;;15.67;91.97;99507.91;182950;1237;58152;-85
2024/04/04 17:34:08;;;;;;;0.90;0.40;;;;;;;15.71;90.15;99507.77;182547;1232;45922;-85
2024/04/04 17:38:10;;;;;;;1.40;0.60;;;;;;;15.76;89.31;99514.34;182202;1232;46088;-85
2024/04/04 17:42:12;;;;;;;1.80;0.90;;;;;;;15.78;89.43;99513.83;182474;1235;46103;-85
2024/04/04 17:46:15;;;;;;;2.40;0.90;;;;;;;15.78;88.15;99510.81;182997;1235;46072;-85
2024/04/04 17:50:17;;;;;;;1.10;0.70;;;;;;;15.78;88.45;99503.02;182657;1232;59413;-85
2024/04/04 17:54:20;;;;;;;1.60;0.90;;;;;;;15.74;87.69;99511.58;181970;1231;46159;-84
2024/04/04 17:58:23;;;;;;;3.10;1.30;;;;;;;15.70;88.32;99509.87;182742;1231;46075;-85
2024/04/04 18:07:33;;;;;;;2.80;1.10;;;;;;;15.60;86.71;99503.92;184813;1232;44671;-90
2024/04/04 18:11:38;;;;;;;2.50;0.90;;;;;;;15.61;86.52;99508.45;181202;1231;5140828;-90
2024/04/04 18:15:47;;;;;;;1.60;1.00;;;;;;;15.57;86.61;99507.15;185079;1232;44809;-92
2024/04/04 18:19:50;;;;;;;1.20;0.60;;;;;;;15.56;86.80;99512.36;184328;1235;44831;-92
2024/04/04 18:23:52;;;;;;;1.50;0.50;;;;;;;15.55;87.05;99521.02;184552;1236;45128;-89
2024/04/04 18:27:55;;;;;;;2.20;0.90;;;;;;;15.53;87.60;99521.06;184040;1235;44679;-90
2024/04/04 18:31:59;;;;;;;1.90;0.30;;;;;;;15.52;87.46;99529.44;184182;1233;58122;-88
2024/04/04 18:36:02;;;;;;;1.50;0.70;;;;;;;15.59;87.00;99529.37;184311;1235;45774;-92
2024/04/04 18:40:30;;;;;;;1.90;1.10;;;;;;;15.64;87.06;99533.30;184933;1236;46127;-93
2024/04/04 18:44:32;;;;;;;2.10;0.70;;;;;;;15.68;87.22;99540.83;185477;1233;87660;-61
2024/04/04 18:48:37;;;;;;;1.00;0.60;;;;;;;15.70;87.72;99542.57;185492;1232;43878;-66
2024/04/04 18:52:43;;;;;;;2.60;1.10;;;;;;;15.68;88.28;99547.98;185563;1232;58856;-62